Time;durP1;ratioP1;P1;durP2;ratioP2;P2;SDS_P1;SDS_P2;PMS_P1;PMS_P2;Temp;Humidity;BMP_temperature;BMP_pressure;BME280_temperature;BME280_humidity;BME280_pressure;Samples;Min_cycle;Max_cycle;Signal;HPM_P1;HPM_P2
2021/03/06 00:00:48;;;;;;;7.38;6.78;;;;;;;;;;4902070;29;20189;-88
2021/03/06 00:03:31;;;;;;;7.75;7.00;;;;;;;;;;4901387;29;20161;-87
2021/03/06 00:06:10;;;;;;;7.93;7.32;;;;;;;;;;4903037;29;20250;-89
2021/03/06 00:11:44;;;;;;;8.57;7.57;;;;;;;;;;4889202;29;20224;-88
2021/03/06 00:14:15;;;;;;;8.32;7.60;;;;;;;;;;4887595;29;20197;-88
2021/03/06 00:16:50;;;;;;;7.20;6.63;;;;;;;;;;4885956;29;20256;-87
2021/03/06 00:19:41;;;;;;;10.70;7.20;;;;;;;;;;4871847;29;20181;-87
2021/03/06 00:22:08;;;;;;;6.40;6.00;;;;;;;;;;4902246;29;20161;-88
2021/03/06 00:24:53;;;;;;;6.15;5.75;;;;;;;;;;4902806;29;20192;-88
2021/03/06 00:27:36;;;;;;;8.48;6.50;;;;;;;;;;4903508;29;20189;-87
2021/03/06 00:30:17;;;;;;;9.38;7.15;;;;;;;;;;4884182;29;20284;-88
2021/03/06 00:33:10;;;;;;;10.27;8.68;;;;;;;;;;4903668;29;20223;-88
2021/03/06 00:35:40;;;;;;;13.05;7.97;;;;;;;;;;4901756;29;20177;-87
2021/03/06 00:38:08;;;;;;;7.28;6.68;;;;;;;;;;4902224;29;20264;-87
2021/03/06 00:40:35;;;;;;;7.88;7.25;;;;;;;;;;4902411;29;20182;-88
2021/03/06 00:43:08;;;;;;;8.57;7.80;;;;;;;;;;4886217;29;20320;-85
2021/03/06 00:45:46;;;;;;;7.10;6.70;;;;;;;;;;4902661;29;20173;-88
2021/03/06 00:48:18;;;;;;;6.93;6.43;;;;;;;;;;4902468;29;20200;-88
2021/03/06 00:51:07;;;;;;;7.00;6.40;;;;;;;;;;4904017;29;20215;-87
2021/03/06 00:53:44;;;;;;;6.95;6.38;;;;;;;;;;4887155;29;20229;-87
2021/03/06 00:56:11;;;;;;;8.48;7.30;;;;;;;;;;4901569;29;20189;-87
2021/03/06 00:58:46;;;;;;;7.13;6.60;;;;;;;;;;4903326;29;20162;-88
2021/03/06 01:01:44;;;;;;;7.57;6.97;;;;;;;;;;4888422;29;20166;-88
2021/03/06 01:04:14;;;;;;;7.28;6.63;;;;;;;;;;4849327;29;20171;-88
2021/03/06 01:06:59;;;;;;;7.65;7.00;;;;;;;;;;4898637;29;20192;-87
2021/03/06 01:09:33;;;;;;;8.65;8.00;;;;;;;;;;4902946;29;20245;-88
2021/03/06 01:12:05;;;;;;;10.45;6.82;;;;;;;;;;4902444;29;20165;-87
2021/03/06 01:14:38;;;;;;;7.53;6.60;;;;;;;;;;4903880;29;20169;-87
2021/03/06 01:17:07;;;;;;;9.07;7.03;;;;;;;;;;4902614;29;20158;-88
2021/03/06 01:19:58;;;;;;;7.18;6.72;;;;;;;;;;4887785;29;20197;-89
2021/03/06 01:22:25;;;;;;;7.40;6.95;;;;;;;;;;4935454;23;20291;-88
2021/03/06 01:24:54;;;;;;;8.13;7.32;;;;;;;;;;4930054;29;20179;-88
2021/03/06 01:27:21;;;;;;;6.80;6.35;;;;;;;;;;4905791;29;20169;-87
2021/03/06 01:30:06;;;;;;;8.88;7.63;;;;;;;;;;4921837;29;20189;-88
2021/03/06 01:32:55;;;;;;;8.23;7.32;;;;;;;;;;4921397;29;20183;-87
2021/03/06 01:35:22;;;;;;;7.72;7.20;;;;;;;;;;4904929;29;20177;-87
2021/03/06 01:38:16;;;;;;;8.20;7.60;;;;;;;;;;4889504;29;20184;-88
2021/03/06 01:41:00;;;;;;;7.93;7.30;;;;;;;;;;4919154;29;20196;-87
2021/03/06 01:43:36;;;;;;;7.18;6.65;;;;;;;;;;4873877;29;20185;-88
2021/03/06 01:46:07;;;;;;;7.22;6.82;;;;;;;;;;4906066;29;20191;-87
2021/03/06 01:48:38;;;;;;;7.35;6.65;;;;;;;;;;4891297;29;20196;-87
2021/03/06 01:51:07;;;;;;;6.85;6.35;;;;;;;;;;4906159;29;20213;-88
2021/03/06 01:53:48;;;;;;;7.35;6.75;;;;;;;;;;4906858;29;20177;-90
2021/03/06 01:56:15;;;;;;;8.43;7.60;;;;;;;;;;4914120;29;20254;-88
2021/03/06 01:59:10;;;;;;;7.13;6.53;;;;;;;;;;4923321;29;20188;-88
2021/03/06 02:01:56;;;;;;;8.55;7.47;;;;;;;;;;4921204;29;20211;-88
2021/03/06 02:04:28;;;;;;;8.95;8.05;;;;;;;;;;4905964;29;20168;-88
2021/03/06 02:07:23;;;;;;;7.70;7.00;;;;;;;;;;4902435;29;20236;-88
2021/03/06 02:09:55;;;;;;;7.45;6.97;;;;;;;;;;4895540;29;20213;-87
2021/03/06 02:15:39;;;;;;;7.05;6.50;;;;;;;;;;4921642;29;20202;-88
2021/03/06 02:18:20;;;;;;;6.70;6.40;;;;;;;;;;4920817;29;20161;-88
2021/03/06 02:21:05;;;;;;;8.43;5.72;;;;;;;;;;4904525;29;20185;-88
2021/03/06 02:23:35;;;;;;;6.97;6.45;;;;;;;;;;4904617;29;20232;-88
2021/03/06 02:26:44;;;;;;;7.97;6.00;;;;;;;;;;4902028;29;20172;-88
2021/03/06 02:29:45;;;;;;;7.43;6.30;;;;;;;;;;4899984;29;20170;-87
2021/03/06 02:32:24;;;;;;;8.07;7.15;;;;;;;;;;4893248;29;20265;-87
2021/03/06 02:35:18;;;;;;;6.55;6.15;;;;;;;;;;4883378;29;20193;-88
2021/03/06 02:37:53;;;;;;;9.05;8.23;;;;;;;;;;4894048;29;20319;-88
2021/03/06 02:41:16;;;;;;;8.52;7.72;;;;;;;;;;4899699;29;20176;-88
2021/03/06 02:44:08;;;;;;;9.13;7.55;;;;;;;;;;4886177;29;20181;-87
2021/03/06 02:46:36;;;;;;;8.43;7.72;;;;;;;;;;4886025;29;20197;-87
2021/03/06 02:49:25;;;;;;;7.50;7.00;;;;;;;;;;4880530;29;20185;-87
2021/03/06 02:52:17;;;;;;;10.05;8.23;;;;;;;;;;4855169;29;20177;-88
2021/03/06 02:55:17;;;;;;;8.13;7.50;;;;;;;;;;4902225;29;20181;-87
2021/03/06 02:58:21;;;;;;;7.70;7.00;;;;;;;;;;4899290;29;20195;-87
2021/03/06 03:01:16;;;;;;;9.75;8.20;;;;;;;;;;4870836;29;20189;-88
2021/03/06 03:04:04;;;;;;;7.10;6.65;;;;;;;;;;4899730;29;20193;-87
2021/03/06 03:06:57;;;;;;;7.80;7.00;;;;;;;;;;4870566;29;20169;-88
2021/03/06 03:09:58;;;;;;;6.97;6.55;;;;;;;;;;4886957;29;20189;-88
2021/03/06 03:15:48;;;;;;;7.20;6.70;;;;;;;;;;4902001;29;20212;-88
2021/03/06 03:18:50;;;;;;;7.30;6.28;;;;;;;;;;4830189;29;20192;-88
2021/03/06 03:21:46;;;;;;;6.72;6.07;;;;;;;;;;4845529;29;20175;-88
2021/03/06 03:24:31;;;;;;;6.07;5.68;;;;;;;;;;4862301;29;20194;-88
2021/03/06 03:27:12;;;;;;;8.73;7.85;;;;;;;;;;4863495;29;20198;-87
2021/03/06 03:30:00;;;;;;;5.78;5.43;;;;;;;;;;4908819;29;20208;-88
2021/03/06 03:32:37;;;;;;;6.38;5.85;;;;;;;;;;4904003;29;20200;-88
2021/03/06 03:35:24;;;;;;;6.07;5.68;;;;;;;;;;4920353;29;20184;-88
2021/03/06 03:38:15;;;;;;;6.28;5.88;;;;;;;;;;4888572;29;20193;-89
2021/03/06 03:41:02;;;;;;;5.55;5.07;;;;;;;;;;4908356;29;20184;-87
2021/03/06 03:44:10;;;;;;;6.10;5.72;;;;;;;;;;4921238;29;20259;-88
2021/03/06 03:49:22;;;;;;;9.00;8.13;;;;;;;;;;5391581;23;20244;-87
2021/03/06 03:57:23;;;;;;;8.52;7.72;;;;;;;;;;5752903;23;20236;-88
2021/03/06 03:59:51;;;;;;;8.73;7.93;;;;;;;;;;4901951;29;20187;-86
2021/03/06 04:02:31;;;;;;;8.65;7.53;;;;;;;;;;4885992;29;20177;-87
2021/03/06 04:04:57;;;;;;;9.30;8.57;;;;;;;;;;4901607;29;20185;-88
2021/03/06 04:07:39;;;;;;;7.47;6.75;;;;;;;;;;4885228;29;20188;-88
2021/03/06 04:10:23;;;;;;;7.47;7.05;;;;;;;;;;4901074;29;20196;-87
2021/03/06 04:13:17;;;;;;;7.18;6.72;;;;;;;;;;4868962;29;20192;-87
2021/03/06 04:15:48;;;;;;;6.53;6.13;;;;;;;;;;4890803;29;20189;-86
2021/03/06 04:18:33;;;;;;;10.68;7.60;;;;;;;;;;4901966;29;20172;-87
2021/03/06 04:21:23;;;;;;;7.43;6.88;;;;;;;;;;4887613;29;20648;-87
2021/03/06 04:23:58;;;;;;;7.88;7.28;;;;;;;;;;4904623;29;20223;-88
2021/03/06 04:29:25;;;;;;;10.00;8.52;;;;;;;;;;4904627;29;20172;-87
2021/03/06 04:32:38;;;;;;;9.80;8.88;;;;;;;;;;4903029;29;20189;-87
2021/03/06 04:35:08;;;;;;;8.27;7.53;;;;;;;;;;4878186;29;20197;-87
2021/03/06 04:37:42;;;;;;;8.20;7.47;;;;;;;;;;4887040;29;20173;-87
2021/03/06 04:40:19;;;;;;;7.88;7.15;;;;;;;;;;4872080;29;20153;-88
2021/03/06 04:43:07;;;;;;;7.80;7.07;;;;;;;;;;4887556;29;20184;-87
2021/03/06 04:45:43;;;;;;;7.30;6.75;;;;;;;;;;4901740;29;20280;-86
2021/03/06 04:48:13;;;;;;;8.13;7.43;;;;;;;;;;4901979;29;20192;-87
2021/03/06 04:50:58;;;;;;;10.98;8.10;;;;;;;;;;4901049;29;20209;-88
2021/03/06 04:53:36;;;;;;;10.63;7.18;;;;;;;;;;4903932;29;20169;-87
2021/03/06 04:56:05;;;;;;;11.27;7.45;;;;;;;;;;4888314;29;20173;-88
2021/03/06 05:07:29;;;;;;;9.60;8.38;;;;;;;;;;3085096;23;20220;-87
2021/03/06 05:09:57;;;;;;;8.73;8.00;;;;;;;;;;4905943;29;20209;-87
2021/03/06 05:12:25;;;;;;;8.45;7.60;;;;;;;;;;4906200;29;20176;-87
2021/03/06 05:14:53;;;;;;;9.60;8.70;;;-1.30;98.00;;;;;;4905646;29;20189;-88
2021/03/06 05:17:29;;;;;;;9.00;8.30;;;-1.40;97.80;;;;;;4906253;29;20169;-87
2021/03/06 05:19:58;;;;;;;9.60;8.48;;;;;;;;;;4904571;29;20181;-87
2021/03/06 05:22:26;;;;;;;8.07;7.53;;;;;;;;;;4905152;29;20183;-88
2021/03/06 05:24:55;;;;;;;8.55;7.93;;;;;;;;;;4906393;29;20256;-87
2021/03/06 05:27:20;;;;;;;8.63;7.82;;;-1.50;95.30;;;;;;4907187;29;20180;-87
2021/03/06 05:29:46;;;;;;;8.20;7.50;;;;;;;;;;4904341;29;20189;-88
2021/03/06 05:32:14;;;;;;;7.93;7.28;;;-1.40;83.90;;;;;;4920399;29;20188;-87
2021/03/06 05:34:43;;;;;;;8.57;7.85;;;-1.50;88.00;;;;;;4905174;29;20201;-87
2021/03/06 05:37:09;;;;;;;8.40;7.85;;;-1.30;89.40;;;;;;4920327;29;20236;-87
2021/03/06 05:39:35;;;;;;;9.23;8.43;;;;;;;;;;4921694;29;20161;-87
2021/03/06 05:42:02;;;;;;;8.95;8.15;;;-1.40;90.10;;;;;;4905643;29;20200;-87
2021/03/06 05:44:28;;;;;;;7.82;7.38;;;-1.30;90.50;;;;;;4904617;29;20186;-86
2021/03/06 05:47:04;;;;;;;8.73;7.93;;;-1.30;90.90;;;;;;4552658;29;10000103;-88
2021/03/06 05:49:31;;;;;;;12.30;8.85;;;-1.40;91.30;;;;;;4903566;29;20185;-88
2021/03/06 05:52:27;;;;;;;9.18;7.97;;;-1.50;91.20;;;;;;4883324;29;20252;-86
2021/03/06 05:59:12;;;;;;;11.43;8.43;;;-1.60;87.50;;;;;;4863412;29;20200;-87
2021/03/06 06:07:09;;;;;;;9.00;8.20;;;-1.50;85.80;;;;;;5100553;23;20228;-87
2021/03/06 06:09:40;;;;;;;8.95;8.13;;;-1.60;88.40;;;;;;4906364;29;20187;-86
2021/03/06 06:12:13;;;;;;;10.43;9.50;;;-1.60;85.70;;;;;;4904188;29;20193;-87
2021/03/06 06:14:47;;;;;;;11.68;8.88;;;-1.50;87.40;;;;;;4905451;29;20169;-86
2021/03/06 06:17:12;;;;;;;8.48;7.88;;;-1.50;90.00;;;;;;4921067;29;20168;-87
2021/03/06 06:20:21;;;;;;;8.90;8.13;;;-1.50;90.20;;;;;;4920529;29;20176;-88
2021/03/06 06:23:40;;;;;;;17.90;8.90;;;-1.60;93.20;;;;;;4904361;29;20191;-88
2021/03/06 06:26:30;;;;;;;11.90;9.45;;;-1.60;89.20;;;;;;4891612;29;20171;-86
2021/03/06 06:29:45;;;;;;;10.85;8.45;;;-1.60;91.40;;;;;;4887314;29;20165;-87
2021/03/06 06:32:51;;;;;;;8.15;7.30;;;-1.60;90.50;;;;;;4920135;29;20200;-87
2021/03/06 06:35:47;;;;;;;8.77;7.95;;;-1.60;85.90;;;;;;4905068;29;20271;-87
2021/03/06 06:38:55;;;;;;;8.45;7.30;;;-1.70;81.30;;;;;;4904874;29;20181;-86
2021/03/06 06:41:21;;;;;;;7.55;6.95;;;-1.40;82.60;;;;;;4884935;29;20213;-86
2021/03/06 06:44:08;;;;;;;8.60;7.82;;;-1.40;82.40;;;;;;4904253;29;20175;-87
2021/03/06 06:47:08;;;;;;;9.63;8.80;;;-1.30;81.80;;;;;;4921324;29;20208;-86
2021/03/06 06:50:25;;;;;;;8.35;7.63;;;-1.30;82.20;;;;;;4904204;29;20173;-86
2021/03/06 06:53:02;;;;;;;9.88;9.13;;;-1.20;80.30;;;;;;4904611;29;20200;-87
2021/03/06 06:55:42;;;;;;;13.38;8.85;;;-1.30;78.20;;;;;;4901850;29;20204;-87
2021/03/06 06:58:11;;;;;;;8.25;7.45;;;-1.20;78.20;;;;;;4917362;29;20184;-87
2021/03/06 07:00:37;;;;;;;8.73;8.07;;;-1.20;77.20;;;;;;4902967;29;20181;-85
2021/03/06 07:03:05;;;;;;;9.90;7.37;;;-1.00;80.80;;;;;;4918283;29;20183;-87
2021/03/06 07:05:49;;;;;;;7.50;6.72;;;-0.30;78.70;;;;;;4917462;29;20205;-86
2021/03/06 07:08:24;;;;;;;6.07;5.68;;;1.20;91.20;;;;;;5034169;23;20195;-85
2021/03/06 07:10:51;;;;;;;6.15;5.75;;;1.20;69.50;;;;;;4904181;29;20204;-87
2021/03/06 07:13:18;;;;;;;6.65;6.05;;;1.80;65.40;;;;;;4904581;29;20193;-87
2021/03/06 07:15:56;;;;;;;6.88;6.38;;;2.60;61.40;;;;;;4920906;29;20546;-86
2021/03/06 07:18:22;;;;;;;7.90;5.65;;;3.90;59.00;;;;;;4902827;29;20164;-87
2021/03/06 07:23:25;;;;;;;5.22;4.82;;;4.70;55.60;;;;;;5204895;23;20254;-86
2021/03/06 07:26:04;;;;;;;6.05;5.75;;;4.90;55.30;;;;;;4902803;29;20161;-87
2021/03/06 07:28:33;;;;;;;5.93;5.72;;;7.60;54.30;;;;;;4919776;29;20255;-87
2021/03/06 07:31:08;;;;;;;5.35;5.15;;;8.10;54.10;;;;;;4902497;29;20201;-88
2021/03/06 07:33:37;;;;;;;5.18;4.97;;;5.90;52.90;;;;;;5113871;23;20237;-86
2021/03/06 07:36:07;;;;;;;5.25;4.90;;;5.80;53.40;;;;;;4881117;29;20192;-86
2021/03/06 07:38:37;;;;;;;7.15;4.90;;;6.00;53.00;;;;;;4880844;29;20659;-86
2021/03/06 07:41:09;;;;;;;4.97;4.67;;;6.70;59.20;;;;;;4883056;29;20194;-85
2021/03/06 07:43:41;;;;;;;4.93;4.60;;;6.60;59.30;;;;;;4883024;29;20515;-87
2021/03/06 07:51:18;;;;;;;5.33;4.93;;;7.90;58.80;;;;;;4934396;29;20231;-87
2021/03/06 07:54:05;;;;;;;5.90;4.73;;;8.80;50.20;;;;;;5240274;23;20493;-87
2021/03/06 07:56:37;;;;;;;5.57;5.27;;;9.10;54.80;;;;;;4907698;29;20441;-87
2021/03/06 07:59:06;;;;;;;5.27;5.07;;;;;;;;;;4907100;29;20459;-88
2021/03/06 08:01:33;;;;;;;5.93;5.60;;;10.20;54.50;;;;;;4903821;29;20472;-85
2021/03/06 08:04:49;;;;;;;5.63;5.23;;;10.30;52.90;;;;;;4904556;29;20421;-87
2021/03/06 08:07:40;;;;;;;5.43;5.23;;;13.30;36.00;;;;;;5169352;23;20507;-87
2021/03/06 08:10:13;;;;;;;5.93;5.73;;;11.60;44.60;;;;;;5039499;23;20628;-89
2021/03/06 08:12:41;;;;;;;5.17;4.97;;;11.50;54.00;;;;;;4923641;29;20437;-85
2021/03/06 08:15:32;;;;;;;5.50;5.30;;;12.30;31.90;;;;;;4886901;29;20440;-86
2021/03/06 08:18:38;;;;;;;5.67;5.40;;;12.60;32.50;;;;;;4905673;29;20606;-87
2021/03/06 08:21:35;;;;;;;6.53;6.00;;;14.70;35.70;;;;;;4900568;29;20421;-88
2021/03/06 08:24:46;;;;;;;6.13;5.63;;;14.50;32.80;;;;;;4906997;29;20429;-88
2021/03/06 08:28:12;;;;;;;13.43;9.07;;;16.10;33.30;;;;;;4916951;29;20444;-88
2021/03/06 08:30:38;;;;;;;8.17;7.57;;;12.80;30.10;;;;;;5633858;23;20533;-88
2021/03/06 08:44:05;;;;;;;6.97;6.57;;;13.30;42.00;;;;;;5754038;23;20489;-85
2021/03/06 08:46:56;;;;;;;7.80;7.17;;;13.20;42.60;;;;;;4866635;29;20431;-90
2021/03/06 08:52:39;;;;;;;7.43;7.03;;;;;;;;;;5481340;23;20488;-89
2021/03/06 08:55:10;;;;;;;6.77;6.37;;;13.70;27.80;;;;;;5054692;23;20528;-87
2021/03/06 08:58:17;;;;;;;8.20;7.60;;;13.80;29.20;;;;;;4900789;29;20445;-86
2021/03/06 09:03:38;;;;;;;6.60;6.30;;;13.70;26.20;;;;;;5517365;23;21485;-85
2021/03/06 09:06:57;;;;;;;8.57;8.07;;;16.90;28.50;;;;;;5126466;23;20477;-86
2021/03/06 09:09:44;;;;;;;7.20;6.90;;;16.90;27.60;;;;;;4886107;29;20505;-87
2021/03/06 09:14:47;;;;;;;6.70;6.30;;;14.30;26.50;;;;;;4984619;23;20483;-88
2021/03/06 09:17:13;;;;;;;7.10;6.50;;;18.10;29.00;;;;;;5077615;23;21320;-87
2021/03/06 09:19:53;;;;;;;6.43;6.03;;;;;;;;;;4999102;23;20575;-87
2021/03/06 09:22:24;;;;;;;9.80;8.87;;;14.30;25.30;;;;;;5114328;23;20485;-87
2021/03/06 09:24:52;;;;;;;7.53;6.93;;;16.40;29.60;;;;;;4888187;29;20498;-85
2021/03/06 09:27:18;;;;;;;6.93;6.33;;;15.30;27.90;;;;;;4887715;29;20438;-86
2021/03/06 09:29:46;;;;;;;7.43;6.73;;;18.40;30.00;;;;;;4550870;29;10000232;-86
2021/03/06 09:36:06;;;;;;;7.53;7.03;;;15.80;28.40;;;;;;4666919;23;20571;-88
2021/03/06 09:39:13;;;;;;;6.43;6.13;;;15.90;31.80;;;;;;4919712;29;20441;-88
2021/03/06 09:41:53;;;;;;;8.33;5.90;;;18.10;32.00;;;;;;4910890;29;20425;-86
2021/03/06 09:45:28;;;;;;;6.17;5.87;;;16.30;27.10;;;;;;4918951;29;20896;-86
2021/03/06 09:48:29;;;;;;;6.80;6.53;;;17.70;26.00;;;;;;4878874;29;20783;-87
2021/03/06 09:51:02;;;;;;;7.53;6.30;;;18.70;30.00;;;;;;4878412;29;20468;-87
2021/03/06 09:59:42;;;;;;;6.00;5.70;;;16.90;29.10;;;;;;5330422;23;21477;-86
2021/03/06 10:02:13;;;;;;;5.93;5.40;;;14.10;27.20;;;;;;4892818;29;20476;-89
2021/03/06 10:04:56;;;;;;;6.00;5.60;;;15.30;31.40;;;;;;4896269;29;20440;-88
2021/03/06 10:07:24;;;;;;;6.97;5.87;;;16.10;31.70;;;;;;4903325;29;20429;-87
2021/03/06 10:10:03;;;;;;;6.17;5.67;;;15.00;29.80;;;;;;4900992;29;20436;-86
2021/03/06 10:15:24;;;;;;;7.07;6.13;;;17.30;30.90;;;;;;4985259;23;20489;-86
2021/03/06 10:17:51;;;;;;;6.67;6.17;;;17.50;28.10;;;;;;4912493;29;20413;-82
2021/03/06 10:20:27;;;;;;;7.20;6.67;;;16.50;28.40;;;;;;4910447;29;20572;-86
2021/03/06 10:22:53;;;;;;;8.10;7.30;;;19.40;29.30;;;;;;4889412;29;20554;-85
2021/03/06 10:25:25;;;;;;;6.50;6.00;;;15.30;28.50;;;;;;4888825;29;20464;-87
2021/03/06 10:27:54;;;;;;;7.10;6.60;;;14.60;27.00;;;;;;4890652;29;20177;-87
2021/03/06 10:30:27;;;;;;;7.23;6.50;;;17.00;27.70;;;;;;4897959;29;20467;-88
2021/03/06 10:33:03;;;;;;;6.57;6.00;;;15.40;26.70;;;;;;4889001;29;20500;-86
2021/03/06 10:35:38;;;;;;;6.23;5.77;;;17.50;27.70;;;;;;4890480;29;20493;-86
2021/03/06 10:38:07;;;;;;;7.20;5.87;;;14.00;26.30;;;;;;4893360;29;20448;-86
2021/03/06 10:40:49;;;;;;;6.53;5.93;;;15.20;27.10;;;;;;4887696;29;20457;-88
2021/03/06 10:43:59;;;;;;;6.00;5.70;;;18.10;28.10;;;;;;4916004;29;20397;-86
2021/03/06 10:46:56;;;;;;;8.00;7.43;;;16.90;26.40;;;;;;4841069;29;20436;-85
2021/03/06 10:49:21;;;;;;;7.20;6.70;;;13.20;24.80;;;;;;4891115;29;20425;-86
2021/03/06 10:51:54;;;;;;;7.50;7.00;;;15.50;30.00;;;;;;4893669;29;20540;-86
2021/03/06 10:54:22;;;;;;;7.70;6.90;;;18.10;26.80;;;;;;4907861;29;20189;-88
2021/03/06 10:57:01;;;;;;;7.60;7.00;;;17.00;30.30;;;;;;4891108;29;20433;-88
2021/03/06 10:59:54;;;;;;;10.00;8.13;;;;;;;;;;4911333;29;20499;-87
2021/03/06 11:02:30;;;;;;;9.07;8.17;;;17.60;37.80;;;;;;4906297;29;20557;-87
2021/03/06 11:05:35;;;;;;;9.90;9.00;;;19.20;30.30;;;;;;4908614;29;20421;-89
2021/03/06 11:08:22;;;;;;;7.57;7.03;;;16.00;27.80;;;;;;4834367;29;20439;-87
2021/03/06 11:10:54;;;;;;;7.80;7.20;;;17.30;30.00;;;;;;4871536;29;20477;-88
2021/03/06 11:13:20;;;;;;;7.23;6.67;;;15.90;27.40;;;;;;4900775;29;20421;-88
2021/03/06 11:15:53;;;;;;;38.13;21.23;;;19.70;32.50;;;;;;4888965;29;20463;-88
2021/03/06 11:18:22;;;;;;;13.53;10.53;;;17.50;30.10;;;;;;4887467;29;20200;-88
2021/03/06 11:20:49;;;;;;;6.57;6.00;;;19.40;29.90;;;;;;4872778;29;20413;-84
2021/03/06 11:23:16;;;;;;;9.43;7.60;;;19.70;33.30;;;;;;4871488;29;20943;-88
2021/03/06 11:25:42;;;;;;;7.80;7.40;;;18.80;28.70;;;;;;4874543;29;21001;-88
2021/03/06 11:28:11;;;;;;;8.10;7.40;;;15.70;28.10;;;;;;4871956;29;20998;-88
2021/03/06 11:30:39;;;;;;;17.77;10.87;;;15.60;29.70;;;;;;4874054;29;20469;-89
2021/03/06 11:33:25;;;;;;;6.40;5.80;;;14.80;29.40;;;;;;4890757;29;20421;-87
2021/03/06 11:35:51;;;;;;;6.67;5.90;;;14.90;28.70;;;;;;4892148;29;20409;-89
2021/03/06 11:38:22;;;;;;;9.17;8.30;;;15.90;30.30;;;;;;4878001;29;20458;-87
2021/03/06 11:40:53;;;;;;;17.83;11.80;;;15.60;31.10;;;;;;4873112;29;20481;-86
2021/03/06 11:43:20;;;;;;;5.67;5.33;;;16.50;30.60;;;;;;4873463;29;20426;-89
2021/03/06 11:45:46;;;;;;;6.30;5.60;;;16.60;30.70;;;;;;4889121;29;20538;-89
2021/03/06 11:48:13;;;;;;;4.93;4.70;;;16.70;31.90;;;;;;4889490;29;20417;-87
2021/03/06 11:50:45;;;;;;;5.30;5.10;;;16.90;30.80;;;;;;4872259;29;20469;-84
2021/03/06 11:53:13;;;;;;;5.53;5.20;;;17.50;29.70;;;;;;4875453;29;20451;-88
2021/03/06 11:55:39;;;;;;;7.33;6.83;;;16.90;34.30;;;;;;4892785;29;20449;-89
2021/03/06 11:58:07;;;;;;;7.30;6.10;;;16.90;41.10;;;;;;4875156;29;20434;-88
2021/03/06 12:00:34;;;;;;;6.63;6.13;;;17.30;31.80;;;;;;4891868;29;20425;-87
2021/03/06 12:03:09;;;;;;;6.70;5.83;;;17.70;34.30;;;;;;4874435;29;20438;-88
2021/03/06 12:05:42;;;;;;;6.50;5.87;;;17.20;28.00;;;;;;4888538;29;20409;-89
2021/03/06 12:08:08;;;;;;;6.27;5.67;;;16.80;29.10;;;;;;4869731;29;20422;-85
2021/03/06 12:10:36;;;;;;;6.30;5.70;;;16.80;29.60;;;;;;4885962;29;20473;-88
2021/03/06 12:13:01;;;;;;;6.20;5.80;;;16.90;29.20;;;;;;4884736;29;20165;-88
2021/03/06 12:15:28;;;;;;;12.03;6.97;;;;;;;;;;4886890;29;20470;-90
2021/03/06 12:17:54;;;;;;;10.10;8.00;;;17.90;26.10;;;;;;4872874;29;20645;-86
2021/03/06 12:20:20;;;;;;;6.40;5.80;;;17.30;36.00;;;;;;4870990;29;20513;-89
2021/03/06 12:22:58;;;;;;;6.30;5.80;;;17.70;32.40;;;;;;4872635;29;20506;-86
2021/03/06 12:25:26;;;;;;;6.90;5.20;;;18.10;31.20;;;;;;4892787;29;20211;-88
2021/03/06 12:27:55;;;;;;;5.63;5.20;;;18.30;35.80;;;;;;4877386;29;20422;-89
2021/03/06 12:30:22;;;;;;;7.53;5.80;;;18.10;37.50;;;;;;4875189;29;20469;-87
2021/03/06 12:32:49;;;;;;;5.90;5.43;;;18.00;35.20;;;;;;4878079;29;20497;-89
2021/03/06 12:35:16;;;;;;;7.77;7.27;;;;;;;;;;4877858;29;20429;-88
2021/03/06 12:37:44;;;;;;;5.80;5.50;;;18.10;25.20;;;;;;4893786;29;20421;-89
2021/03/06 12:40:14;;;;;;;5.30;5.13;;;17.30;28.80;;;;;;4876620;29;20429;-87
2021/03/06 12:42:43;;;;;;;5.47;5.20;;;20.00;28.60;;;;;;4891156;29;20505;-88
2021/03/06 12:45:16;;;;;;;5.70;5.30;;;17.40;27.30;;;;;;4891390;29;20414;-87
2021/03/06 12:47:53;;;;;;;9.60;6.10;;;16.30;27.30;;;;;;4858604;29;20806;-89
2021/03/06 12:50:24;;;;;;;6.10;5.70;;;17.40;28.70;;;;;;4877349;29;20513;-89
2021/03/06 12:52:53;;;;;;;11.20;6.60;;;18.00;27.40;;;;;;4858875;29;20437;-89
2021/03/06 12:55:26;;;;;;;5.23;4.83;;;17.40;37.00;;;;;;4876346;29;20437;-88
2021/03/06 12:58:00;;;;;;;4.80;4.50;;;19.40;28.50;;;;;;4910833;29;20429;-85
2021/03/06 13:00:31;;;;;;;6.60;6.20;;;17.40;29.10;;;;;;4900053;29;20428;-87
2021/03/06 13:03:21;;;;;;;4.83;4.60;;;16.60;28.00;;;;;;4899051;29;20413;-89
2021/03/06 13:05:53;;;;;;;8.63;6.27;;;16.70;26.40;;;;;;4900943;29;20425;-87
2021/03/06 13:08:27;;;;;;;6.63;6.17;;;16.20;28.20;;;;;;4918408;29;20496;-90
2021/03/06 13:10:57;;;;;;;6.23;5.83;;;16.50;27.00;;;;;;4884914;29;20473;-87
2021/03/06 13:13:23;;;;;;;4.97;4.57;;;18.50;29.60;;;;;;4891232;29;20634;-89
2021/03/06 13:15:58;;;;;;;5.10;4.90;;;17.00;31.40;;;;;;4913648;29;20972;-86
2021/03/06 13:18:32;;;;;;;10.17;6.93;;;17.30;26.00;;;;;;4893715;29;20424;-89
2021/03/06 13:21:00;;;;;;;5.40;5.10;;;15.10;28.40;;;;;;4877833;29;20528;-87
2021/03/06 13:23:28;;;;;;;5.53;5.30;;;16.50;30.00;;;;;;4911054;29;20939;-88
2021/03/06 13:25:57;;;;;;;5.50;5.00;;;15.60;25.70;;;;;;4910200;29;20599;-88
2021/03/06 13:28:25;;;;;;;4.90;4.50;;;19.30;32.50;;;;;;4912426;29;20417;-86
2021/03/06 13:30:58;;;;;;;5.80;5.50;;;18.30;28.70;;;;;;4895273;29;20508;-89
2021/03/06 13:33:35;;;;;;;6.57;5.90;;;16.70;25.90;;;;;;4897300;29;20421;-91
2021/03/06 13:36:00;;;;;;;4.60;4.30;;;16.10;25.40;;;;;;4891601;29;20480;-89
2021/03/06 13:38:26;;;;;;;4.50;4.30;;;16.00;26.60;;;;;;4893204;29;20417;-89
2021/03/06 13:43:38;;;;;;;7.00;6.50;;;14.80;27.70;;;;;;4913257;29;20180;-88
2021/03/06 13:46:06;;;;;;;8.80;5.00;;;15.90;28.70;;;;;;4907116;29;20417;-89
2021/03/06 13:48:35;;;;;;;8.07;5.30;;;17.20;25.80;;;;;;4909351;29;20196;-88
2021/03/06 13:51:01;;;;;;;4.63;4.43;;;16.70;30.80;;;;;;4905711;29;20441;-89
2021/03/06 13:53:30;;;;;;;5.70;5.33;;;17.00;30.40;;;;;;4891726;29;20520;-88
2021/03/06 13:55:56;;;;;;;5.30;4.97;;;16.90;30.10;;;;;;4894451;29;20172;-88
2021/03/06 13:58:23;;;;;;;6.67;6.07;;;17.30;28.60;;;;;;4570134;29;9999878;-86
2021/03/06 14:00:48;;;;;;;5.27;5.07;;;17.90;29.20;;;;;;4892199;29;20181;-84
2021/03/06 14:03:14;;;;;;;5.97;5.37;;;16.80;26.10;;;;;;4893329;29;20456;-90
2021/03/06 14:05:43;;;;;;;5.10;4.80;;;18.30;29.80;;;;;;4893366;29;20244;-86
2021/03/06 14:08:14;;;;;;;4.90;4.50;;;16.70;30.90;;;;;;4893610;29;20181;-89
2021/03/06 14:10:40;;;;;;;5.00;4.70;;;16.80;31.60;;;;;;4907548;29;20475;-88
2021/03/06 14:13:14;;;;;;;4.47;4.37;;;16.80;28.20;;;;;;4895194;29;20485;-87
2021/03/06 14:15:45;;;;;;;6.30;5.00;;;15.80;28.30;;;;;;4895652;29;20299;-87
2021/03/06 14:19:04;;;;;;;5.37;5.00;;;17.40;25.10;;;;;;4899958;29;20591;-92
2021/03/06 14:21:50;;;;;;;5.00;4.70;;;17.30;24.80;;;;;;4919020;29;20397;-89
2021/03/06 14:24:49;;;;;;;5.50;5.03;;;19.20;25.90;;;;;;4901544;29;20477;-92
2021/03/06 14:27:37;;;;;;;4.93;4.60;;;15.40;24.40;;;;;;4888501;29;20790;-93
2021/03/06 14:30:11;;;;;;;4.60;4.17;;;18.40;25.70;;;;;;4917499;29;20405;-92
2021/03/06 14:32:55;;;;;;;4.50;4.10;;;17.30;25.10;;;;;;4900407;29;20500;-92
2021/03/06 14:35:29;;;;;;;4.47;4.07;;;16.00;24.70;;;;;;4900676;29;20436;-88
2021/03/06 14:38:15;;;;;;;4.17;3.83;;;16.80;28.10;;;;;;4901203;29;20416;-90
2021/03/06 14:40:55;;;;;;;4.00;3.70;;;14.90;24.80;;;;;;4916824;29;20473;-91
2021/03/06 14:43:32;;;;;;;4.00;3.90;;;15.60;26.80;;;;;;4901074;29;20420;-91
2021/03/06 14:46:02;;;;;;;4.43;4.03;;;14.20;26.00;;;;;;4901448;29;20425;-90
2021/03/06 14:48:29;;;;;;;5.70;3.77;;;15.70;26.30;;;;;;4902574;29;20417;-89
2021/03/06 14:51:10;;;;;;;17.33;13.23;;;16.30;27.70;;;;;;4902280;29;20468;-88
2021/03/06 14:53:49;;;;;;;5.30;4.33;;;17.70;28.10;;;;;;4915418;29;20460;-88
2021/03/06 14:56:44;;;;;;;3.60;3.40;;;15.30;27.50;;;;;;4880716;29;20428;-88
2021/03/06 14:59:22;;;;;;;15.20;11.10;;;15.10;25.00;;;;;;4894111;29;20409;-86
2021/03/06 15:02:08;;;;;;;4.37;4.07;;;13.70;24.80;;;;;;4902719;29;20737;-90
2021/03/06 15:04:43;;;;;;;4.90;4.50;;;17.90;29.40;;;;;;4918733;29;20389;-89
2021/03/06 15:07:16;;;;;;;5.70;5.30;;;14.00;25.70;;;;;;4914029;29;20453;-88
2021/03/06 15:09:44;;;;;;;6.03;5.20;;;15.10;29.10;;;;;;5004098;23;20509;-88
2021/03/06 15:12:23;;;;;;;4.13;3.93;;;15.40;32.60;;;;;;4935522;29;20470;-88
2021/03/06 15:15:28;;;;;;;4.27;4.03;;;14.30;25.50;;;;;;4919132;29;20531;-85
2021/03/06 15:23:40;;;;;;;7.27;5.97;;;12.70;25.50;;;;;;5137947;23;20563;-87
2021/03/06 15:36:27;;;;;;;5.40;3.87;;;11.20;26.30;;;;;;1278116;27;20490;-88
2021/03/06 15:38:52;;;;;;;2.67;2.63;;;11.10;29.60;;;;;;4901951;29;20420;-87
2021/03/06 15:41:18;;;;;;;3.70;3.10;;;11.00;27.60;;;;;;4902474;29;20247;-86
2021/03/06 15:43:43;;;;;;;3.70;3.37;;;12.80;28.60;;;;;;4919982;29;20637;-86
2021/03/06 15:46:09;;;;;;;4.17;3.77;;;10.30;26.00;;;;;;4919127;29;20256;-87
2021/03/06 15:48:36;;;;;;;4.33;3.87;;;10.90;26.80;;;;;;4238551;29;10000719;-87
2021/03/06 15:51:01;;;;;;;2.80;2.60;;;11.20;28.30;;;;;;4917809;29;20208;-88
2021/03/06 15:53:29;;;;;;;3.70;3.40;;;10.90;29.70;;;;;;4894734;29;20439;-87
2021/03/06 15:55:55;;;;;;;2.80;2.80;;;10.00;28.30;;;;;;4898188;29;20187;-86
2021/03/06 15:58:21;;;;;;;3.63;3.53;;;9.80;28.90;;;;;;4919658;29;20479;-87